createdAt,value
2022-12-08T00:01:20.294Z,98158.60
2022-12-08T00:03:47.929Z,98157.60
2022-12-08T00:06:54.556Z,98156.40
2022-12-08T00:09:38.790Z,98162.20
2022-12-08T00:12:10.282Z,98160.60
2022-12-08T00:14:43.011Z,98164.00
2022-12-08T00:17:12.358Z,98170.20
2022-12-08T00:19:40.298Z,98168.40
2022-12-08T00:22:09.402Z,98174.00
2022-12-08T00:24:39.889Z,98180.40
2022-12-08T00:27:09.165Z,98178.80
2022-12-08T00:29:35.901Z,98177.40
2022-12-08T00:32:02.312Z,98177.80
2022-12-08T00:34:28.766Z,98178.60
2022-12-08T00:36:55.172Z,98180.00
2022-12-08T00:39:21.565Z,98178.00
2022-12-08T00:42:06.635Z,98187.00
2022-12-08T00:44:32.990Z,98188.00
2022-12-08T00:46:59.575Z,98195.60
2022-12-08T00:49:25.944Z,98189.00
2022-12-08T00:51:52.419Z,98187.60
2022-12-08T00:54:19.128Z,98194.00
2022-12-08T00:56:46.487Z,98196.20
2022-12-08T00:59:12.833Z,98199.60
2022-12-08T01:01:39.377Z,98204.60
2022-12-08T01:04:10.023Z,98211.00
2022-12-08T01:06:36.702Z,98214.60
2022-12-08T01:09:05.828Z,98219.80
2022-12-08T01:11:33.194Z,98221.00
2022-12-08T01:13:59.782Z,98221.80
2022-12-08T01:16:30.999Z,98223.00
2022-12-08T01:18:59.312Z,98222.60
2022-12-08T01:21:27.060Z,98224.40
2022-12-08T01:23:54.259Z,98225.40
2022-12-08T01:26:21.391Z,98218.80
2022-12-08T01:28:48.327Z,98221.60
2022-12-08T01:31:19.213Z,98219.40
2022-12-08T01:33:46.843Z,98219.20
2022-12-08T01:36:29.628Z,98220.60
2022-12-08T01:39:03.696Z,98224.40
2022-12-08T01:41:33.738Z,98226.60
2022-12-08T01:44:10.583Z,98229.40
2022-12-08T01:46:41.532Z,98228.20
2022-12-08T01:49:13.967Z,98222.20
2022-12-08T01:52:00.121Z,98221.00
2022-12-08T01:54:32.931Z,98217.20
2022-12-08T01:57:10.514Z,98221.40
2022-12-08T01:59:44.670Z,98221.80
2022-12-08T02:02:12.748Z,98219.20
2022-12-08T02:04:39.404Z,98219.00
2022-12-08T02:07:09.814Z,98225.00
2022-12-08T02:09:38.688Z,98222.20
2022-12-08T02:12:05.649Z,98223.40
2022-12-08T02:14:32.307Z,98224.40
2022-12-08T02:17:35.233Z,98234.00
2022-12-08T02:20:31.458Z,98231.60
2022-12-08T02:23:07.860Z,98229.80
2022-12-08T02:26:31.375Z,98225.40
2022-12-08T02:29:39.475Z,98233.20
2022-12-08T02:33:12.262Z,98225.40
2022-12-08T02:35:59.722Z,98224.00
2022-12-08T02:38:59.080Z,98230.40
2022-12-08T02:41:59.427Z,98228.00
2022-12-08T02:44:43.572Z,98235.40
2022-12-08T02:47:19.414Z,98234.20
2022-12-08T02:49:46.708Z,98237.40
2022-12-08T02:52:13.059Z,98241.80
2022-12-08T02:54:49.675Z,98244.40
2022-12-08T02:57:43.109Z,98245.80
2022-12-08T03:00:16.416Z,98242.00
2022-12-08T03:03:14.669Z,98244.80
2022-12-08T03:06:05.557Z,98241.80
2022-12-08T03:09:06.343Z,98245.20
2022-12-08T03:11:46.595Z,98244.60
2022-12-08T03:14:17.368Z,98243.80
2022-12-08T03:16:49.841Z,98247.60
2022-12-08T03:19:26.163Z,98244.60
2022-12-08T03:22:03.202Z,98246.20
2022-12-08T03:24:37.253Z,98243.00
2022-12-08T03:27:20.046Z,98249.80
2022-12-08T03:29:52.974Z,98258.20
2022-12-08T03:32:29.852Z,98257.60
2022-12-08T03:35:00.808Z,98259.80
2022-12-08T03:37:28.453Z,98258.80
2022-12-08T03:39:55.209Z,98250.40
2022-12-08T03:42:22.042Z,98247.80
2022-12-08T03:44:50.736Z,98243.60
2022-12-08T03:47:17.211Z,98250.60
2022-12-08T03:49:43.621Z,98257.20
2022-12-08T03:52:10.033Z,98258.80
2022-12-08T03:54:36.545Z,98265.20
2022-12-08T03:57:02.923Z,98269.40
2022-12-08T03:59:29.358Z,98267.20
2022-12-08T04:01:55.799Z,98266.40
2022-12-08T04:04:22.469Z,98267.40
2022-12-08T04:06:48.947Z,98264.60
2022-12-08T04:09:15.366Z,98257.20
2022-12-08T04:11:42.241Z,98262.80
2022-12-08T04:14:08.847Z,98264.00
2022-12-08T04:16:35.517Z,98263.80
2022-12-08T04:19:02.033Z,98264.40
2022-12-08T04:21:28.534Z,98271.60
2022-12-08T04:24:00.831Z,98273.00
2022-12-08T04:26:28.219Z,98266.60
2022-12-08T04:28:54.595Z,98268.40
2022-12-08T04:31:21.133Z,98266.00
2022-12-08T04:33:48.585Z,98271.00
2022-12-08T04:36:15.228Z,98266.40
2022-12-08T04:38:41.664Z,98268.40
2022-12-08T04:41:08.586Z,98275.40
2022-12-08T04:43:36.230Z,98273.40
2022-12-08T04:46:07.804Z,98279.80
2022-12-08T04:48:36.921Z,98271.40
2022-12-08T04:51:03.588Z,98269.80
2022-12-08T04:53:30.089Z,98273.20
2022-12-08T04:55:56.512Z,98271.80
2022-12-08T04:58:23.201Z,98269.80
2022-12-08T05:00:50.453Z,98269.00
2022-12-08T05:03:17.402Z,98266.00
2022-12-08T05:05:44.529Z,98267.40
2022-12-08T05:08:11.519Z,98270.80
2022-12-08T05:10:38.104Z,98278.40
2022-12-08T05:13:04.614Z,98283.00
2022-12-08T05:15:31.068Z,98271.80
2022-12-08T05:17:57.483Z,98272.60
2022-12-08T05:20:24.005Z,98271.00
2022-12-08T05:22:50.562Z,98270.00
2022-12-08T05:25:17.223Z,98268.40
2022-12-08T05:27:43.771Z,98263.00
2022-12-08T05:30:10.644Z,98267.60
2022-12-08T05:32:37.146Z,98266.40
2022-12-08T05:35:03.749Z,98267.00
2022-12-08T05:37:30.248Z,98264.60
2022-12-08T05:39:56.732Z,98267.60
2022-12-08T05:42:25.084Z,98266.60
2022-12-08T05:44:52.140Z,98264.20
2022-12-08T05:47:18.717Z,98271.80
2022-12-08T05:49:45.085Z,98278.80
2022-12-08T05:52:11.907Z,98280.40
2022-12-08T05:54:38.568Z,98280.40
2022-12-08T05:57:05.053Z,98280.00
2022-12-08T05:59:31.438Z,98290.80
2022-12-08T06:01:57.927Z,98290.40
2022-12-08T06:04:24.467Z,98292.60
2022-12-08T06:06:50.923Z,98299.60
2022-12-08T06:09:17.369Z,98302.80
2022-12-08T06:11:43.864Z,98303.20
2022-12-08T06:14:12.314Z,98303.40
2022-12-08T06:16:39.170Z,98303.20
2022-12-08T06:19:05.774Z,98306.40
2022-12-08T06:21:32.215Z,98302.60
2022-12-08T06:23:58.616Z,98302.60
2022-12-08T06:26:25.325Z,98304.80
2022-12-08T06:28:52.343Z,98306.00
2022-12-08T06:31:23.649Z,98303.20
2022-12-08T06:33:50.820Z,98309.20
2022-12-08T06:36:20.574Z,98301.60
2022-12-08T06:38:47.591Z,98303.40
2022-12-08T06:41:14.881Z,98308.40
2022-12-08T06:43:42.175Z,98309.80
2022-12-08T06:46:14.257Z,98306.80
2022-12-08T06:48:40.726Z,98310.80
2022-12-08T06:51:11.675Z,98309.60
2022-12-08T06:53:39.531Z,98318.20
2022-12-08T06:56:07.216Z,98318.20
2022-12-08T06:58:34.761Z,98316.80
2022-12-08T07:01:11.187Z,98321.40
2022-12-08T07:03:39.296Z,98322.60
2022-12-08T07:06:06.728Z,98328.20
2022-12-08T07:08:34.785Z,98319.80
2022-12-08T07:11:10.346Z,98319.60
2022-12-08T07:13:37.291Z,98319.00
2022-12-08T07:16:12.629Z,98321.40
2022-12-08T07:18:39.766Z,98327.20
2022-12-08T07:21:13.315Z,98323.60
2022-12-08T07:23:39.892Z,98327.20
2022-12-08T07:26:09.896Z,98321.60
2022-12-08T07:28:39.536Z,98323.60
2022-12-08T07:31:08.076Z,98323.60
2022-12-08T07:33:36.222Z,98324.20
2022-12-08T07:36:06.354Z,98325.60
2022-12-08T07:38:32.955Z,98321.20
2022-12-08T07:41:00.186Z,98320.60
2022-12-08T07:43:26.990Z,98325.40
2022-12-08T07:45:53.468Z,98323.20
2022-12-08T07:48:20.330Z,98323.20
2022-12-08T07:50:47.518Z,98322.20
2022-12-08T07:53:14.665Z,98327.00
2022-12-08T07:55:43.029Z,98322.80
2022-12-08T07:58:10.760Z,98317.40
2022-12-08T08:00:37.775Z,98319.40
2022-12-08T08:03:04.376Z,98320.00
2022-12-08T08:05:30.819Z,98323.00
2022-12-08T08:07:57.251Z,98316.00
2022-12-08T08:10:23.870Z,98317.20
2022-12-08T08:12:50.419Z,98318.00
2022-12-08T08:15:17.793Z,98317.00
2022-12-08T08:17:44.178Z,98320.60
2022-12-08T08:20:11.452Z,98317.20
2022-12-08T08:22:37.962Z,98319.80
2022-12-08T08:25:05.625Z,98323.20
2022-12-08T08:27:32.088Z,98319.00
2022-12-08T08:29:58.576Z,98317.20
2022-12-08T08:32:25.065Z,98325.00
2022-12-08T08:34:52.132Z,98326.00
2022-12-08T08:37:18.593Z,98326.20
2022-12-08T08:39:45.133Z,98335.40
2022-12-08T08:42:11.528Z,98334.60
2022-12-08T08:44:38.922Z,98334.80
2022-12-08T08:47:05.319Z,98337.00
2022-12-08T08:49:31.837Z,98340.40
2022-12-08T08:51:58.306Z,98336.00
2022-12-08T08:54:24.734Z,98334.60
2022-12-08T08:56:51.156Z,98332.40
2022-12-08T08:59:17.611Z,98332.60
2022-12-08T09:01:44.110Z,98327.60
2022-12-08T09:04:11.271Z,98325.80
2022-12-08T09:06:38.241Z,98320.20
2022-12-08T09:09:05.479Z,98321.40
2022-12-08T09:11:33.075Z,98315.60
2022-12-08T09:13:59.491Z,98312.60
2022-12-08T09:16:26.358Z,98312.20
2022-12-08T09:18:53.323Z,98316.80
2022-12-08T09:21:24.920Z,98309.60
2022-12-08T09:23:55.798Z,98312.00
2022-12-08T09:26:24.097Z,98308.20
2022-12-08T09:28:52.580Z,98312.80
2022-12-08T09:31:20.964Z,98306.60
2022-12-08T09:33:48.858Z,98301.40
2022-12-08T09:36:15.243Z,98298.00
2022-12-08T09:38:41.686Z,98291.60
2022-12-08T09:41:23.922Z,98286.20
2022-12-08T09:44:12.779Z,98283.80
2022-12-08T09:46:39.954Z,98278.00
2022-12-08T09:49:16.349Z,98279.40
2022-12-08T09:51:46.058Z,98275.20
2022-12-08T09:54:33.154Z,98282.00
2022-12-08T09:57:05.420Z,98276.40
2022-12-08T09:59:35.102Z,98274.80
2022-12-08T10:02:07.780Z,98273.20
2022-12-08T10:04:38.272Z,98272.00
2022-12-08T10:07:44.060Z,98280.20
2022-12-08T10:10:38.026Z,98275.80
2022-12-08T10:13:23.515Z,98269.20
2022-12-08T10:16:29.326Z,98262.60
2022-12-08T10:19:12.658Z,98255.40
2022-12-08T10:21:40.594Z,98253.40
2022-12-08T10:24:33.601Z,98248.80
2022-12-08T10:27:02.148Z,98243.80
2022-12-08T10:29:28.634Z,98242.40
2022-12-08T10:31:59.579Z,98247.60
2022-12-08T10:34:26.127Z,98244.60
2022-12-08T10:37:00.687Z,98247.40
2022-12-08T10:39:45.586Z,98236.00
2022-12-08T10:42:14.970Z,98238.00
2022-12-08T10:45:04.446Z,98237.20
2022-12-08T10:47:38.279Z,98236.60
2022-12-08T10:50:30.402Z,98233.40
2022-12-08T10:53:01.849Z,98228.20
2022-12-08T10:55:39.041Z,98228.20
2022-12-08T10:58:05.461Z,98228.20
2022-12-08T11:00:32.035Z,98227.00
2022-12-08T11:03:04.751Z,98226.40
2022-12-08T11:05:35.472Z,98222.80
2022-12-08T11:08:05.427Z,98224.80
2022-12-08T11:10:43.092Z,98224.80
2022-12-08T11:13:26.614Z,98224.40
2022-12-08T11:15:57.538Z,98216.00
2022-12-08T11:18:40.166Z,98215.00
2022-12-08T11:21:13.391Z,98213.40
2022-12-08T11:23:46.126Z,98216.60
2022-12-08T11:26:28.174Z,98217.40
2022-12-08T11:28:54.965Z,98217.60
2022-12-08T11:31:38.200Z,98214.80
2022-12-08T11:34:06.703Z,98211.40
2022-12-08T11:36:35.787Z,98206.00
2022-12-08T11:39:04.730Z,98203.40
2022-12-08T11:41:40.918Z,98209.80
2022-12-08T11:44:35.096Z,98204.40
2022-12-08T11:47:21.817Z,98204.60
2022-12-08T11:49:57.915Z,98200.40
2022-12-08T11:52:32.447Z,98203.60
2022-12-08T11:55:35.228Z,98193.20
2022-12-08T11:58:21.458Z,98193.80
2022-12-08T12:00:48.795Z,98196.00
2022-12-08T12:03:30.029Z,98192.00
2022-12-08T12:06:55.930Z,98190.80
2022-12-08T12:10:08.027Z,98190.20
2022-12-08T12:13:04.515Z,98188.00
2022-12-08T12:15:58.807Z,98188.20
2022-12-08T12:18:58.176Z,98186.80
2022-12-08T12:21:34.985Z,98185.20
2022-12-08T12:24:09.403Z,98186.40
2022-12-08T12:26:49.631Z,98185.80
2022-12-08T12:29:23.797Z,98184.20
2022-12-08T12:31:59.892Z,98188.00
2022-12-08T12:34:32.961Z,98182.20
2022-12-08T12:37:14.889Z,98177.00
2022-12-08T12:39:58.599Z,98177.00
2022-12-08T12:42:57.453Z,98178.80
2022-12-08T12:45:33.217Z,98172.20
2022-12-08T12:47:59.881Z,98170.00
2022-12-08T12:50:44.647Z,98160.60
2022-12-08T12:53:17.107Z,98168.40
2022-12-08T12:55:59.830Z,98163.40
2022-12-08T12:58:29.509Z,98162.60
2022-12-08T13:01:11.551Z,98162.40
2022-12-08T13:03:49.824Z,98163.20
2022-12-08T13:06:35.823Z,98155.20
2022-12-08T13:09:02.187Z,98148.60
2022-12-08T13:11:28.786Z,98156.40
2022-12-08T13:14:03.404Z,98147.80
2022-12-08T13:16:39.494Z,98147.00
2022-12-08T13:19:14.925Z,98148.80
2022-12-08T13:21:41.646Z,98149.00
2022-12-08T13:24:12.851Z,98151.40
2022-12-08T13:27:11.229Z,98153.20
2022-12-08T13:29:39.175Z,98147.20
2022-12-08T13:32:08.994Z,98149.40
2022-12-08T13:34:45.311Z,98151.40
2022-12-08T13:37:11.818Z,98151.20
2022-12-08T13:39:44.794Z,98150.40
2022-12-08T13:42:28.178Z,98147.40
2022-12-08T13:45:39.776Z,98145.00
2022-12-08T13:49:52.673Z,98148.20
2022-12-08T13:57:33.780Z,98150.40
2022-12-08T14:00:14.981Z,98151.20
2022-12-08T14:03:01.989Z,98154.20
2022-12-08T14:06:10.951Z,98154.40
2022-12-08T14:09:00.110Z,98150.80
2022-12-08T14:11:38.614Z,98152.80
2022-12-08T14:14:14.511Z,98156.00
2022-12-08T14:16:55.012Z,98166.00
2022-12-08T14:19:29.167Z,98165.40
2022-12-08T14:22:15.402Z,98165.80
2022-12-08T14:24:46.849Z,98164.80
2022-12-08T14:27:22.603Z,98164.80
2022-12-08T14:30:00.120Z,98161.80
2022-12-08T14:32:49.052Z,98165.00
2022-12-08T14:35:28.196Z,98163.00
2022-12-08T14:37:59.029Z,98168.60
2022-12-08T14:40:34.654Z,98172.40
2022-12-08T14:43:10.397Z,98161.60
2022-12-08T14:45:42.464Z,98165.20
2022-12-08T14:48:42.638Z,98164.80
2022-12-08T14:51:21.325Z,98161.80
2022-12-08T14:54:08.252Z,98163.20
2022-12-08T14:56:40.520Z,98165.00
2022-12-08T14:59:31.099Z,98168.20
2022-12-08T15:02:15.656Z,98173.40
2022-12-08T15:04:47.546Z,98170.60
2022-12-08T15:07:18.745Z,98165.20
2022-12-08T15:09:49.965Z,98169.00
2022-12-08T15:12:27.151Z,98171.00
2022-12-08T15:15:09.463Z,98170.80
2022-12-08T15:17:48.891Z,98168.40
2022-12-08T15:20:50.792Z,98170.00
2022-12-08T15:23:44.626Z,98174.00
2022-12-08T15:26:27.084Z,98171.00
2022-12-08T15:28:55.080Z,98170.80
2022-12-08T15:31:21.756Z,98171.20
2022-12-08T15:33:48.452Z,98172.20
2022-12-08T15:36:14.856Z,98175.20
2022-12-08T15:38:43.938Z,98179.20
2022-12-08T15:41:14.865Z,98174.40
2022-12-08T15:43:41.484Z,98177.00
2022-12-08T15:46:07.904Z,98177.00
2022-12-08T15:48:34.337Z,98177.00
2022-12-08T15:51:00.718Z,98179.20
2022-12-08T15:53:27.286Z,98175.00
2022-12-08T15:58:57.688Z,98178.00
2022-12-08T16:01:25.732Z,98178.80
2022-12-08T16:04:36.788Z,98181.80
2022-12-08T16:09:39.600Z,98180.40
2022-12-08T16:12:57.189Z,98172.40
2022-12-08T16:15:50.120Z,98170.60
2022-12-08T16:18:10.052Z,98166.60
2022-12-08T16:21:06.192Z,98167.60
2022-12-08T16:23:41.801Z,98170.80
2022-12-08T16:26:28.428Z,98173.60
2022-12-08T16:29:01.887Z,98170.80
2022-12-08T16:31:28.355Z,98169.60
2022-12-08T16:33:54.790Z,98172.60
2022-12-08T16:36:21.215Z,98168.80
2022-12-08T16:38:47.563Z,98169.20
2022-12-08T16:41:36.921Z,98170.80
2022-12-08T16:44:05.846Z,98172.20
2022-12-08T16:46:32.428Z,98172.20
2022-12-08T16:48:59.086Z,98170.80
2022-12-08T16:51:27.368Z,98172.20
2022-12-08T16:53:58.220Z,98166.40
2022-12-08T16:56:31.935Z,98161.80
2022-12-08T16:58:59.824Z,98163.00
2022-12-08T17:01:26.467Z,98167.40
2022-12-08T17:04:22.627Z,98165.80
2022-12-08T17:06:39.761Z,98165.80
2022-12-08T17:09:06.366Z,98173.00
2022-12-08T17:11:37.439Z,98169.40
2022-12-08T17:14:05.759Z,98170.80
2022-12-08T17:16:32.228Z,98170.40
2022-12-08T17:18:58.735Z,98172.80
2022-12-08T17:21:25.145Z,98177.00
2022-12-08T17:23:51.618Z,98175.60
2022-12-08T17:26:18.029Z,98184.80
2022-12-08T17:28:59.951Z,98182.00
2022-12-08T17:31:30.433Z,98183.20
2022-12-08T17:34:04.182Z,98181.20
2022-12-08T17:36:31.040Z,98182.20
2022-12-08T17:39:00.475Z,98181.20
2022-12-08T17:41:28.083Z,98186.80
2022-12-08T17:43:54.573Z,98187.60
2022-12-08T17:46:22.021Z,98188.20
2022-12-08T17:48:48.957Z,98195.60
2022-12-08T17:51:16.026Z,98189.80
2022-12-08T17:53:42.651Z,98188.00
2022-12-08T17:56:21.272Z,98187.00
2022-12-08T17:58:52.906Z,98188.80
2022-12-08T18:01:22.253Z,98186.60
2022-12-08T18:03:48.683Z,98186.20
2022-12-08T18:06:17.526Z,98187.20
2022-12-08T18:08:43.972Z,98182.60
2022-12-08T18:11:18.946Z,98177.80
2022-12-08T18:13:47.698Z,98177.60
2022-12-08T18:16:15.434Z,98180.80
2022-12-08T18:18:42.177Z,98174.80
2022-12-08T18:21:08.953Z,98173.40
2022-12-08T18:23:40.479Z,98171.80
2022-12-08T18:26:09.768Z,98171.80
2022-12-08T18:28:37.770Z,98171.80
2022-12-08T18:31:18.273Z,98168.40
2022-12-08T18:33:47.370Z,98165.00
2022-12-08T18:36:20.893Z,98159.20
2022-12-08T18:38:48.159Z,98165.00
2022-12-08T18:41:18.963Z,98162.20
2022-12-08T18:43:46.023Z,98164.60
2022-12-08T18:46:14.392Z,98165.80
2022-12-08T18:48:47.116Z,98168.20
2022-12-08T18:51:17.321Z,98170.60
2022-12-08T18:53:45.063Z,98170.60
2022-12-08T18:56:31.175Z,98167.60
2022-12-08T18:59:04.261Z,98172.20
2022-12-08T19:01:36.700Z,98172.60
2022-12-08T19:06:53.929Z,98171.60
2022-12-08T19:09:20.907Z,98169.20
2022-12-08T19:11:47.311Z,98164.20
2022-12-08T19:14:13.808Z,98164.00
2022-12-08T19:16:40.381Z,98167.80
2022-12-08T19:19:06.911Z,98168.60
2022-12-08T19:21:33.479Z,98168.00
2022-12-08T19:23:59.946Z,98170.00
2022-12-08T19:26:28.298Z,98175.80
2022-12-08T19:28:55.192Z,98174.20
2022-12-08T19:31:22.076Z,98166.40
2022-12-08T19:33:48.532Z,98167.20
2022-12-08T19:36:19.256Z,98167.00
2022-12-08T19:39:05.340Z,98168.40
2022-12-08T19:41:51.375Z,98166.20
2022-12-08T19:44:41.029Z,98164.00
2022-12-08T19:47:07.509Z,98161.80
2022-12-08T19:49:34.216Z,98158.80
2022-12-08T19:52:01.370Z,98159.00
2022-12-08T19:54:27.939Z,98164.20
2022-12-08T19:56:54.411Z,98156.20
2022-12-08T19:59:21.570Z,98153.60
2022-12-08T20:01:49.162Z,98156.60
2022-12-08T20:04:16.700Z,98152.20
2022-12-08T20:06:44.789Z,98152.00
2022-12-08T20:09:13.163Z,98150.00
2022-12-08T20:11:40.941Z,98160.20
2022-12-08T20:14:07.588Z,98166.60
2022-12-08T20:16:35.199Z,98163.80
2022-12-08T20:19:02.083Z,98167.60
2022-12-08T20:21:28.779Z,98173.20
2022-12-08T20:23:55.558Z,98179.40
2022-12-08T20:26:23.141Z,98182.40
2022-12-08T20:28:49.869Z,98187.00
2022-12-08T20:31:27.159Z,98183.80
2022-12-08T20:33:54.121Z,98187.00
2022-12-08T20:36:22.699Z,98186.60
2022-12-08T20:38:51.909Z,98184.80
2022-12-08T20:41:19.529Z,98176.80
2022-12-08T20:43:47.901Z,98174.40
2022-12-08T20:46:17.844Z,98176.80
2022-12-08T20:48:44.936Z,98178.60
2022-12-08T20:51:19.672Z,98178.20
2022-12-08T20:53:47.578Z,98177.80
2022-12-08T20:56:20.548Z,98185.40
2022-12-08T20:58:47.645Z,98184.00
2022-12-08T21:01:18.292Z,98182.20
2022-12-08T21:03:46.223Z,98184.00
2022-12-08T21:06:14.132Z,98182.00
2022-12-08T21:08:42.256Z,98183.20
2022-12-08T21:11:09.751Z,98184.00
2022-12-08T21:13:39.519Z,98181.20
2022-12-08T21:16:09.311Z,98177.00
2022-12-08T21:18:39.773Z,98178.20
2022-12-08T21:21:13.944Z,98173.80
2022-12-08T21:23:42.490Z,98177.60
2022-12-08T21:26:19.285Z,98176.80
2022-12-08T21:28:47.342Z,98178.80
2022-12-08T21:31:19.172Z,98181.60
2022-12-08T21:33:45.904Z,98177.80
2022-12-08T21:36:19.087Z,98171.00
2022-12-08T21:38:46.999Z,98173.00
2022-12-08T21:41:37.719Z,98172.20
2022-12-08T21:44:05.725Z,98174.80
2022-12-08T21:46:33.141Z,98176.40
2022-12-08T21:48:59.889Z,98171.80
2022-12-08T21:51:26.784Z,98172.80
2022-12-08T21:53:53.225Z,98173.60
2022-12-08T21:56:19.936Z,98169.20
2022-12-08T21:58:46.456Z,98166.60
2022-12-08T22:01:14.286Z,98164.20
2022-12-08T22:03:41.505Z,98164.80
2022-12-08T22:06:12.408Z,98166.20
2022-12-08T22:08:39.836Z,98165.40
2022-12-08T22:11:08.427Z,98166.00
2022-12-08T22:13:37.659Z,98165.80
2022-12-08T22:16:08.718Z,98161.20
2022-12-08T22:18:37.131Z,98161.60
2022-12-08T22:21:12.472Z,98165.80
2022-12-08T22:23:39.208Z,98157.80
2022-12-08T22:26:07.097Z,98159.20
2022-12-08T22:28:37.806Z,98157.20
2022-12-08T22:31:22.888Z,98159.80
2022-12-08T22:33:51.116Z,98157.40
2022-12-08T22:36:24.494Z,98158.60
2022-12-08T22:38:53.036Z,98158.20
2022-12-08T22:41:20.772Z,98160.00
2022-12-08T22:43:48.136Z,98164.80
2022-12-08T22:46:22.744Z,98160.60
2022-12-08T22:48:50.651Z,98160.80
2022-12-08T22:51:18.172Z,98165.60
2022-12-08T22:53:46.152Z,98167.00
2022-12-08T22:56:14.955Z,98166.60
2022-12-08T22:58:44.487Z,98169.80
2022-12-08T23:01:30.653Z,98172.80
2022-12-08T23:03:58.760Z,98178.80
2022-12-08T23:06:27.204Z,98179.20
2022-12-08T23:08:54.847Z,98178.80
2022-12-08T23:11:25.300Z,98183.80
2022-12-08T23:13:51.916Z,98183.00
2022-12-08T23:16:18.567Z,98179.60
2022-12-08T23:18:46.866Z,98176.80
2022-12-08T23:21:18.166Z,98177.60
2022-12-08T23:23:45.110Z,98175.80
2022-12-08T23:26:27.612Z,98179.40
2022-12-08T23:28:55.568Z,98169.40
2022-12-08T23:31:23.668Z,98173.60
2022-12-08T23:33:51.554Z,98169.20
2022-12-08T23:36:20.082Z,98172.40
2022-12-08T23:38:46.766Z,98169.80
2022-12-08T23:41:15.536Z,98169.80
2022-12-08T23:43:48.032Z,98167.40
2022-12-08T23:46:17.791Z,98164.60
2022-12-08T23:48:45.110Z,98165.20
2022-12-08T23:51:13.115Z,98162.80
2022-12-08T23:53:39.649Z,98155.60
2022-12-08T23:56:10.596Z,98155.40
2022-12-08T23:58:37.657Z,98155.20
